Terminal Aerodrome Forecast
Issued by NWS

Home | Current Version | Previous Version | Text Only | Print | Product List | Glossary On
Versions: 1 2 3 4 5 6 7 8 9 10 11 12 13 14
772
FTUS42 KFFC 072323
TAFPDK
TAF
KPDK 072323Z 0800/0824 29005KT P6SM BKN250
     FM080900 25003KT P6SM SCT035 BKN100
     FM081400 26007KT P6SM OVC025
     FM081800 27010G18KT P6SM SCT035 BKN050 PROB30 0818/0824 6SM
      -SHRA BKN035=

USA.gov is the U.S. government's official web portal to all federal, state and local government web resources and services.